Terminal Aerodrome Forecast
Issued by NWS Glasgow, MT

Home | Current Version | Previous Version | Text Only | Print | Product List | Glossary On
Versions: 1 2 3 4 5 6 7 8 9 10 11 12
182
FTUS45 KGGW 252321
TAFGGW
TAF
KGGW 252321Z 2600/2624 29009KT P6SM FEW110
     FM261200 VRB05KT P6SM FEW110
     FM261700 17011KT P6SM FEW110
     FM262000 20009KT P6SM FEW100=

USA.gov is the U.S. government's official web portal to all federal, state and local government web resources and services.